Time;durP1;ratioP1;P1;durP2;ratioP2;P2;SDS_P1;SDS_P2;PMS_P1;PMS_P2;Temp;Humidity;BMP_temperature;BMP_pressure;BME280_temperature;BME280_humidity;BME280_pressure;Samples;Min_cycle;Max_cycle;Signal;HPM_P1;HPM_P2
2022/11/13 00:00:51;;;;;;;25.45;13.52;;;6.50;85.10;;;4.54;100.00;97072.03;4890113;28;20198;-67
2022/11/13 00:03:17;;;;;;;26.52;14.32;;;6.50;85.20;;;4.53;100.00;97070.38;4924094;28;20499;-67
2022/11/13 00:05:43;;;;;;;20.85;13.65;;;6.50;85.10;;;4.54;100.00;97067.63;4908337;28;20480;-67
2022/11/13 00:08:09;;;;;;;36.13;14.38;;;6.50;85.10;;;4.52;100.00;97058.28;4911790;28;20429;-67
2022/11/13 00:10:35;;;;;;;38.03;15.18;;;6.50;84.90;;;4.50;100.00;97060.19;4909399;28;20427;-67
2022/11/13 00:13:01;;;;;;;24.00;14.75;;;6.40;84.50;;;4.48;100.00;97056.88;4920187;28;20535;-67
2022/11/13 00:15:27;;;;;;;34.17;14.75;;;6.40;84.70;;;4.42;100.00;97058.22;4904037;28;20490;-66
2022/11/13 00:17:53;;;;;;;24.40;13.52;;;6.40;84.50;;;4.42;100.00;97052.19;4918854;28;20562;-68
2022/11/13 00:20:19;;;;;;;17.77;13.38;;;6.30;84.60;;;4.42;100.00;97046.97;4893819;28;20222;-67
2022/11/13 00:22:46;;;;;;;18.85;13.40;;;6.40;84.60;;;4.39;100.00;97048.06;4872298;28;20215;-67
2022/11/13 00:25:12;;;;;;;31.70;13.13;;;6.30;84.50;;;4.36;100.00;97045.72;4891372;28;20314;-67
2022/11/13 00:27:38;;;;;;;20.73;12.30;;;6.20;84.50;;;4.33;100.00;97045.16;4887163;28;20498;-67
2022/11/13 00:30:07;;;;;;;56.72;10.70;;;6.30;84.80;;;4.33;100.00;97038.16;4888505;28;20444;-67
2022/11/13 00:32:33;;;;;;;17.48;11.52;;;6.20;84.30;;;4.32;100.00;97030.47;4889522;28;20265;-66
2022/11/13 00:34:59;;;;;;;20.42;11.85;;;6.20;84.50;;;4.26;100.00;97027.41;4891230;28;20637;-66
2022/11/13 00:37:25;;;;;;;29.15;11.15;;;6.10;84.20;;;4.23;100.00;97025.06;4887977;28;20401;-66
2022/11/13 00:39:51;;;;;;;31.35;10.80;;;6.10;84.40;;;4.20;100.00;97022.72;4886873;28;20409;-67
2022/11/13 00:42:18;;;;;;;28.75;11.25;;;6.10;84.40;;;4.17;100.00;97016.94;4887383;28;20318;-66
2022/11/13 00:44:44;;;;;;;21.60;10.13;;;6.10;84.50;;;4.15;100.00;97018.84;4912727;28;20370;-67
2022/11/13 00:47:10;;;;;;;20.70;8.77;;;6.10;84.70;;;4.12;100.00;97019.91;4953357;28;20478;-67
2022/11/13 00:49:36;;;;;;;25.38;11.25;;;6.00;84.80;;;4.11;100.00;97018.28;4908544;28;20359;-67
2022/11/13 00:52:02;;;;;;;30.80;11.00;;;6.00;85.00;;;4.10;100.00;97014.03;4917982;28;20667;-67
2022/11/13 00:54:28;;;;;;;25.00;11.07;;;6.00;84.90;;;4.10;100.00;97016.63;4923268;28;20242;-67
2022/11/13 00:56:54;;;;;;;29.65;11.15;;;6.10;85.00;;;4.07;100.00;97011.63;4964494;28;20063;-66
2022/11/13 00:59:20;;;;;;;24.17;10.75;;;6.10;85.00;;;4.07;100.00;97011.63;4956838;28;20353;-67
2022/11/13 01:01:46;;;;;;;23.30;10.55;;;6.00;84.90;;;4.05;100.00;96997.94;4917947;28;20585;-67
2022/11/13 01:04:12;;;;;;;16.75;10.85;;;6.00;84.80;;;4.01;100.00;97001.75;4907424;28;20436;-67
2022/11/13 01:06:39;;;;;;;36.67;9.85;;;5.90;84.90;;;4.02;100.00;96997.34;4921918;28;20493;-67
2022/11/13 01:09:05;;;;;;;29.58;9.88;;;5.90;84.80;;;4.02;100.00;96994.75;4922119;28;20557;-67
2022/11/13 01:11:31;;;;;;;41.92;9.95;;;5.90;84.70;;;4.00;100.00;96997.50;4933610;28;20321;-66
2022/11/13 01:13:57;;;;;;;28.73;9.82;;;5.80;84.60;;;3.97;100.00;96989.94;4930731;28;20386;-67
2022/11/13 01:16:25;;;;;;;33.60;9.55;;;5.70;84.80;;;3.95;100.00;96989.25;4911369;28;20616;-67
2022/11/13 01:18:53;;;;;;;21.85;9.63;;;5.70;84.90;;;3.90;100.00;96981.81;4906249;28;20346;-67
2022/11/13 01:21:21;;;;;;;14.70;9.13;;;5.70;84.90;;;3.85;100.00;96981.38;4927222;28;20198;-67
2022/11/13 01:23:47;;;;;;;14.98;9.45;;;5.70;84.90;;;3.81;100.00;96979.13;4960167;28;20417;-66
2022/11/13 01:26:17;;;;;;;32.28;9.68;;;5.70;84.60;;;3.80;100.00;96982.69;4988594;28;20462;-67
2022/11/13 01:28:43;;;;;;;15.88;9.45;;;5.70;84.70;;;3.76;100.00;96982.09;4925755;28;20226;-65
2022/11/13 01:31:12;;;;;;;15.65;8.23;;;5.60;85.00;;;3.76;100.00;96976.06;4898373;28;20437;-66
2022/11/13 01:33:38;;;;;;;31.40;9.35;;;5.60;85.10;;;3.75;100.00;96967.44;4891885;28;20369;-67
2022/11/13 01:36:07;;;;;;;10.52;7.72;;;5.60;84.90;;;3.76;100.00;96965.66;4936937;28;20210;-66
2022/11/13 01:38:33;;;;;;;12.95;8.20;;;5.70;84.90;;;3.73;100.00;96965.91;4909832;28;20358;-67
2022/11/13 01:40:59;;;;;;;20.30;8.60;;;5.70;85.00;;;3.73;100.00;96960.72;4906132;28;20341;-67
2022/11/13 01:43:34;;;;;;;13.73;8.57;;;5.60;84.70;;;3.74;100.00;96959.75;4903059;28;20722;-67
2022/11/13 01:46:29;;;;;;;48.47;8.50;;;5.70;84.90;;;3.72;100.00;96959.06;4906956;28;20563;-68
2022/11/13 01:49:09;;;;;;;16.73;8.30;;;5.60;84.30;;;3.68;100.00;96953.28;4932728;28;20439;-67
2022/11/13 01:52:22;;;;;;;30.98;9.00;;;5.60;84.60;;;3.66;100.00;96955.19;4942196;28;20369;-67
2022/11/13 01:54:51;;;;;;;13.00;8.23;;;5.60;84.60;;;3.62;100.00;96954.63;4903963;28;20699;-66
2022/11/13 01:57:17;;;;;;;50.78;8.55;;;5.50;84.50;;;3.56;100.00;96960.31;4960193;28;20595;-66
2022/11/13 01:59:47;;;;;;;31.30;8.07;;;5.50;84.30;;;3.51;100.00;96956.44;4961739;28;20033;-67
2022/11/13 02:02:12;;;;;;;15.15;7.25;;;5.40;84.10;;;3.48;100.00;96952.31;4962164;28;20049;-66
2022/11/13 02:04:38;;;;;;;13.88;6.95;;;5.30;83.80;;;3.43;100.00;96946.66;4974521;28;20556;-66
2022/11/13 02:07:07;;;;;;;10.35;6.65;;;5.30;83.70;;;3.38;100.00;96951.38;4963780;28;20345;-66
2022/11/13 02:09:43;;;;;;;23.45;6.90;;;5.20;83.60;;;3.28;100.00;96935.69;4967554;28;20055;-66
2022/11/13 02:12:11;;;;;;;17.02;6.53;;;5.10;83.40;;;3.23;100.00;96937.03;4980697;28;20052;-66
2022/11/13 02:14:44;;;;;;;20.70;7.00;;;5.10;83.60;;;3.15;100.00;96929.00;4982363;28;20554;-66
2022/11/13 02:17:15;;;;;;;15.60;6.88;;;5.00;83.50;;;3.10;100.00;96944.13;4961569;28;20309;-67
2022/11/13 02:19:53;;;;;;;12.77;7.10;;;5.00;83.70;;;3.07;100.00;96945.22;4908656;28;20398;-67
2022/11/13 02:22:40;;;;;;;34.47;7.00;;;4.90;83.80;;;3.06;100.00;96936.59;4888906;28;20545;-67
2022/11/13 02:25:06;;;;;;;14.98;6.28;;;4.90;83.90;;;3.01;100.00;96938.75;4899745;28;20368;-67
2022/11/13 02:27:47;;;;;;;11.00;6.55;;;4.90;83.90;;;2.98;100.00;96936.38;4890536;28;20521;-67
2022/11/13 02:30:27;;;;;;;29.13;7.00;;;4.90;84.00;;;2.97;100.00;96932.13;4891125;28;20555;-68
2022/11/13 02:32:54;;;;;;;11.98;6.60;;;4.80;84.00;;;2.96;100.00;96930.50;4888916;28;20554;-68
2022/11/13 02:35:26;;;;;;;8.77;6.55;;;4.80;84.10;;;2.95;100.00;96928.00;4909472;28;20435;-68
2022/11/13 02:37:52;;;;;;;19.70;7.32;;;4.80;83.90;;;2.90;100.00;96917.97;4923646;28;20302;-68
2022/11/13 02:40:18;;;;;;;12.90;6.80;;;4.80;83.80;;;2.88;100.00;96916.44;4892009;28;20425;-68
2022/11/13 02:42:44;;;;;;;34.70;7.25;;;4.80;83.70;;;2.85;100.00;96911.47;4891710;28;20478;-66
2022/11/13 02:45:10;;;;;;;31.58;7.47;;;4.70;83.60;;;2.81;100.00;96905.69;4891327;28;20286;-67
2022/11/13 02:47:36;;;;;;;25.75;6.90;;;4.70;83.70;;;2.78;100.00;96898.16;4912521;28;20368;-66
2022/11/13 02:50:03;;;;;;;27.98;7.05;;;4.70;83.80;;;2.72;100.00;96894.28;4924067;28;20325;-67
2022/11/13 02:52:30;;;;;;;21.75;7.00;;;4.60;83.70;;;2.69;100.00;96896.25;4936054;28;20366;-66
2022/11/13 02:54:56;;;;;;;16.67;6.82;;;4.60;83.70;;;2.64;100.00;96885.41;4951678;28;20278;-66
2022/11/13 02:57:22;;;;;;;23.95;7.10;;;4.60;83.80;;;2.62;100.00;96877.75;4923477;28;20388;-66
2022/11/13 02:59:48;;;;;;;31.10;8.52;;;4.50;84.00;;;2.62;100.00;96879.53;4914127;28;20314;-65
2022/11/13 03:02:14;;;;;;;15.05;7.07;;;4.60;84.40;;;2.58;100.00;96876.34;4949393;28;20407;-66
2022/11/13 03:04:40;;;;;;;13.13;6.95;;;4.60;84.50;;;2.63;100.00;96876.78;4948403;28;20378;-67
2022/11/13 03:07:06;;;;;;;26.92;7.20;;;4.60;84.50;;;2.67;100.00;96877.38;4936559;28;20305;-68
2022/11/13 03:09:32;;;;;;;8.98;6.82;;;4.60;84.30;;;2.66;100.00;96871.34;4921654;28;20702;-67
2022/11/13 03:11:58;;;;;;;28.98;6.50;;;4.60;84.00;;;2.67;100.00;96874.78;4905917;28;20210;-67
2022/11/13 03:14:24;;;;;;;9.68;6.72;;;4.60;83.70;;;2.66;100.00;96873.13;4921789;28;20811;-66
2022/11/13 03:16:50;;;;;;;16.95;7.82;;;4.60;84.10;;;2.65;100.00;96877.50;4893659;28;20401;-66
2022/11/13 03:19:16;;;;;;;20.40;7.78;;;4.60;83.90;;;2.63;100.00;96865.59;4899484;28;20574;-67
2022/11/13 03:21:42;;;;;;;12.77;8.02;;;4.60;84.00;;;2.63;100.00;96860.38;4895350;28;20357;-67
2022/11/13 03:24:09;;;;;;;18.63;7.45;;;4.50;83.70;;;2.58;100.00;96860.75;4917472;28;20077;-67
2022/11/13 03:26:36;;;;;;;26.85;8.18;;;4.50;83.80;;;2.55;100.00;96858.41;4897903;28;20481;-67
2022/11/13 03:29:02;;;;;;;53.63;8.23;;;4.50;83.60;;;2.52;100.00;96855.22;4902142;28;20404;-67
2022/11/13 03:31:28;;;;;;;15.45;8.68;;;4.40;83.50;;;2.50;100.00;96857.13;4915582;28;20344;-67
2022/11/13 03:33:54;;;;;;;17.92;9.98;;;4.40;83.70;;;2.49;100.00;96845.06;4935655;28;20546;-67
2022/11/13 03:36:20;;;;;;;14.85;9.30;;;4.40;83.90;;;2.49;100.00;96845.91;4919089;28;20669;-67
2022/11/13 03:38:46;;;;;;;20.23;9.52;;;4.40;84.10;;;2.47;100.00;96846.00;4922011;28;20342;-67
2022/11/13 03:41:13;;;;;;;28.30;9.70;;;4.40;84.20;;;2.47;100.00;96845.19;4937679;28;20369;-67
2022/11/13 03:43:40;;;;;;;32.17;10.80;;;4.40;84.30;;;2.49;100.00;96842.47;4908590;28;20536;-67
2022/11/13 03:46:06;;;;;;;22.95;10.85;;;4.50;84.40;;;2.50;100.00;96841.53;4910088;28;20327;-66
2022/11/13 03:48:32;;;;;;;79.10;10.90;;;4.50;84.60;;;2.47;100.00;96840.81;4934828;28;20397;-66
2022/11/13 03:50:59;;;;;;;18.30;11.38;;;4.40;84.10;;;2.49;100.00;96834.66;4897227;28;20099;-68
2022/11/13 03:53:24;;;;;;;25.45;11.50;;;4.40;84.60;;;2.47;100.00;96840.81;4947682;28;20704;-67
2022/11/13 03:55:51;;;;;;;26.23;10.57;;;4.40;84.40;;;2.49;100.00;96826.88;4926254;28;20223;-67
2022/11/13 03:58:17;;;;;;;53.85;10.93;;;4.50;84.60;;;2.50;100.00;96818.19;4904085;28;20292;-66
2022/11/13 04:00:44;;;;;;;17.10;11.05;;;4.40;84.60;;;2.49;100.00;96829.47;4906340;28;20377;-68
2022/11/13 04:03:10;;;;;;;16.77;10.60;;;4.40;84.60;;;2.49;100.00;96821.69;4916904;28;20482;-68
2022/11/13 04:05:36;;;;;;;22.80;11.15;;;4.50;84.60;;;2.50;100.00;96825.97;4922359;28;20219;-66
2022/11/13 04:08:02;;;;;;;17.25;10.70;;;4.40;84.50;;;2.51;100.00;96819.81;4897518;28;20350;-66
2022/11/13 04:10:29;;;;;;;16.75;10.35;;;4.50;84.70;;;2.52;100.00;96816.28;4919463;28;20210;-65
2022/11/13 04:12:55;;;;;;;18.92;10.75;;;4.40;84.50;;;2.54;100.00;96814.38;4891819;28;20401;-65
2022/11/13 04:15:21;;;;;;;24.55;10.05;;;4.50;84.80;;;2.53;100.00;96813.56;4904931;28;20376;-66
2022/11/13 04:17:48;;;;;;;14.10;10.02;;;4.50;84.60;;;2.54;100.00;96804.00;4917196;28;20432;-67
2022/11/13 04:20:14;;;;;;;17.65;9.18;;;4.50;84.50;;;2.55;100.00;96798.69;4905255;28;20409;-68
2022/11/13 04:22:41;;;;;;;40.42;8.93;;;4.50;84.60;;;2.57;100.00;96799.38;4895411;28;20391;-67
2022/11/13 04:25:07;;;;;;;14.48;8.32;;;4.60;84.10;;;2.58;100.00;96795.00;4906859;28;20420;-66
2022/11/13 04:27:34;;;;;;;18.38;9.05;;;4.60;84.30;;;2.57;100.00;96798.56;4906784;28;20860;-66
2022/11/13 04:30:00;;;;;;;17.70;9.70;;;4.50;84.00;;;2.54;100.00;96785.81;4927869;28;20266;-66
2022/11/13 04:32:26;;;;;;;27.40;9.40;;;4.60;83.80;;;2.52;100.00;96793.72;4903265;28;20360;-66
2022/11/13 04:34:52;;;;;;;19.98;8.82;;;4.50;83.80;;;2.48;100.00;96789.69;4904109;28;20272;-66
2022/11/13 04:37:18;;;;;;;10.80;8.25;;;4.40;83.90;;;2.49;100.00;96795.72;4918141;28;20516;-66
2022/11/13 04:39:44;;;;;;;26.50;8.27;;;4.50;84.00;;;2.45;100.00;96790.78;4917905;28;20342;-66
2022/11/13 04:44:55;;;;;;;19.52;8.63;;;4.50;84.10;;;2.42;100.00;96788.44;4984753;28;20471;-66
2022/11/13 04:47:21;;;;;;;13.77;8.02;;;4.30;83.70;;;2.42;100.00;96790.19;4959527;28;20478;-66
2022/11/13 04:49:47;;;;;;;18.80;8.80;;;4.40;83.90;;;2.38;100.00;96778.41;4907879;28;20357;-66
2022/11/13 04:52:13;;;;;;;19.27;7.78;;;4.30;83.70;;;2.35;100.00;96784.69;4937889;28;20457;-66
2022/11/13 04:54:39;;;;;;;12.38;8.10;;;4.30;83.90;;;2.34;100.00;96777.84;4920432;28;20214;-67
2022/11/13 04:57:06;;;;;;;21.38;7.95;;;4.20;83.80;;;2.31;100.00;96778.09;4933374;28;20375;-67
2022/11/13 04:59:32;;;;;;;13.82;7.53;;;4.30;83.70;;;2.32;100.00;96771.13;4907412;28;20463;-67
2022/11/13 05:01:58;;;;;;;17.02;7.13;;;4.30;83.80;;;2.31;100.00;96767.69;4920642;28;20436;-67
2022/11/13 05:04:24;;;;;;;19.63;7.68;;;4.30;83.90;;;2.28;100.00;96767.94;4937884;28;20314;-67
2022/11/13 05:06:50;;;;;;;11.88;7.38;;;4.20;84.00;;;2.29;100.00;96769.59;4901465;28;20313;-67
2022/11/13 05:09:16;;;;;;;11.10;7.28;;;4.30;84.10;;;2.30;100.00;96768.66;4902164;28;20318;-67
2022/11/13 05:11:42;;;;;;;13.70;8.23;;;4.30;84.10;;;2.32;100.00;96763.34;4926145;28;20183;-67
2022/11/13 05:14:11;;;;;;;13.35;7.90;;;4.30;84.00;;;2.30;100.00;96760.84;4938926;28;20319;-67
2022/11/13 05:16:37;;;;;;;13.77;7.13;;;4.30;83.70;;;2.26;100.00;96764.63;4922508;28;20306;-67
2022/11/13 05:19:05;;;;;;;9.10;7.10;;;4.20;83.40;;;2.23;100.00;96758.84;4933486;28;20033;-67
2022/11/13 05:21:35;;;;;;;12.77;7.43;;;4.20;83.40;;;2.25;100.00;96767.34;4926017;28;20452;-67
2022/11/13 05:24:02;;;;;;;11.68;7.40;;;4.20;83.70;;;2.24;100.00;96771.69;4912935;28;20520;-67
2022/11/13 05:26:28;;;;;;;24.33;7.75;;;4.20;83.70;;;2.23;100.00;96775.25;4928908;28;20396;-66
2022/11/13 05:28:58;;;;;;;45.13;17.65;;;4.20;83.60;;;2.23;100.00;96769.22;4937959;28;20744;-66
2022/11/13 05:31:24;;;;;;;30.27;13.10;;;4.20;83.50;;;2.20;100.00;96764.28;4889046;28;20357;-67
2022/11/13 05:33:50;;;;;;;21.15;9.13;;;4.10;83.60;;;2.16;100.00;96761.13;4937707;28;20381;-67
2022/11/13 05:36:17;;;;;;;25.60;7.80;;;4.10;83.70;;;2.13;100.00;96748.38;4920787;28;20338;-67
2022/11/13 05:38:43;;;;;;;14.65;7.40;;;4.10;83.50;;;2.12;100.00;96744.13;4905058;28;20661;-67
2022/11/13 05:41:18;;;;;;;10.50;6.65;;;4.10;83.70;;;2.11;100.00;96735.53;4922118;28;20631;-67
2022/11/13 05:43:44;;;;;;;18.30;6.57;;;4.10;83.70;;;2.07;100.00;96733.31;4898976;28;20393;-66
2022/11/13 05:46:18;;;;;;;13.20;6.47;;;4.00;83.30;;;2.04;100.00;96728.34;4891156;28;20543;-66
2022/11/13 05:48:44;;;;;;;13.43;6.28;;;4.00;83.50;;;2.04;100.00;96728.34;4887418;28;20343;-67
2022/11/13 05:51:17;;;;;;;13.70;6.88;;;4.10;83.80;;;2.04;100.00;96717.97;4902051;28;20876;-67
2022/11/13 05:53:44;;;;;;;10.38;6.75;;;4.00;83.80;;;2.05;100.00;96710.06;4922074;28;20893;-67
2022/11/13 05:56:19;;;;;;;18.77;6.38;;;4.00;83.90;;;2.06;100.00;96708.31;4922397;28;20407;-66
2022/11/13 05:58:45;;;;;;;10.43;6.00;;;4.00;83.40;;;2.05;100.00;96709.25;4934888;28;20372;-67
2022/11/13 06:01:16;;;;;;;8.27;5.78;;;4.00;83.30;;;2.02;100.00;96715.47;4905413;28;20740;-66
2022/11/13 06:03:43;;;;;;;7.55;5.85;;;4.00;83.00;;;1.99;100.00;96720.91;4929424;28;20427;-66
2022/11/13 06:06:11;;;;;;;13.25;5.32;;;3.90;82.90;;;1.97;100.00;96724.56;4908031;28;20314;-66
2022/11/13 06:08:37;;;;;;;11.15;5.38;;;3.90;83.00;;;1.94;100.00;96722.22;4905011;28;20423;-67
2022/11/13 06:11:06;;;;;;;11.93;5.45;;;3.90;82.60;;;1.90;100.00;96720.81;4927643;28;20567;-66
2022/11/13 06:13:32;;;;;;;12.95;5.53;;;3.90;82.70;;;1.86;100.00;96719.41;4942395;28;20350;-66
2022/11/13 06:16:10;;;;;;;11.65;5.47;;;3.80;82.50;;;1.80;100.00;96721.53;4914757;28;20357;-66
2022/11/13 06:18:36;;;;;;;7.95;5.45;;;3.70;82.40;;;1.79;100.00;96716.47;4909766;28;20539;-66
2022/11/13 06:21:05;;;;;;;11.23;6.00;;;3.70;82.50;;;1.75;100.00;96708.09;4928179;28;20379;-67
2022/11/13 06:23:36;;;;;;;14.30;6.05;;;3.70;82.50;;;1.70;100.00;96707.63;4926681;28;20488;-65
2022/11/13 06:26:02;;;;;;;;;;;3.60;82.60;;;1.70;100.00;96694.66;4926643;28;20584;-68
2022/11/13 06:28:28;;;;;;;6.47;5.05;;;3.60;82.70;;;1.70;100.00;96706.81;4957583;28;20226;-66
2022/11/13 06:30:54;;;;;;;8.63;5.40;;;3.60;83.10;;;1.71;100.00;96690.31;4911943;28;20863;-67
2022/11/13 06:33:20;;;;;;;9.45;5.40;;;3.70;83.00;;;1.68;100.00;96680.19;4925453;28;20427;-66
2022/11/13 06:35:46;;;;;;;7.80;5.40;;;3.70;83.10;;;1.74;100.00;96680.50;4894931;28;20353;-66
2022/11/13 06:38:12;;;;;;;14.77;6.13;;;3.70;83.00;;;1.74;100.00;96677.09;4908769;28;20413;-65
2022/11/13 06:40:38;;;;;;;6.40;4.95;;;3.70;82.90;;;1.73;100.00;96672.84;4924616;28;20752;-68
2022/11/13 06:43:04;;;;;;;9.70;5.82;;;3.70;82.90;;;1.69;100.00;96671.44;4912745;28;20045;-67
2022/11/13 06:45:30;;;;;;;7.18;6.05;;;3.70;82.60;;;1.68;100.00;96662.03;4896584;28;20365;-68
2022/11/13 06:47:56;;;;;;;10.55;5.72;;;3.70;82.90;;;1.69;100.00;96664.50;4929652;28;20322;-65
2022/11/13 06:50:22;;;;;;;9.35;5.65;;;3.70;82.70;;;1.72;100.00;96661.66;4908544;28;20306;-65
2022/11/13 06:52:48;;;;;;;7.00;5.20;;;3.70;82.70;;;1.73;100.00;96663.31;4911328;28;20346;-65
2022/11/13 06:55:15;;;;;;;7.47;5.28;;;3.70;82.40;;;1.72;100.00;96661.66;4906115;28;20416;-67
2022/11/13 06:57:41;;;;;;;7.97;5.88;;;3.70;82.40;;;1.73;100.00;96663.31;4925109;28;20664;-66
2022/11/13 07:00:08;;;;;;;11.98;5.55;;;3.80;82.00;;;1.75;100.00;96655.41;4923546;28;20667;-66
2022/11/13 07:02:34;;;;;;;12.65;6.47;;;3.90;82.20;;;1.78;100.00;96663.75;4906914;28;20407;-66
2022/11/13 07:05:00;;;;;;;12.57;9.00;;;3.90;82.00;;;1.82;100.00;96656.59;4909301;28;20329;-66
2022/11/13 07:07:26;;;;;;;13.40;8.07;;;4.00;82.30;;;1.87;100.00;96648.44;4908930;28;20369;-67
2022/11/13 07:09:52;;;;;;;15.68;10.90;;;4.10;82.20;;;1.92;100.00;96647.13;4914914;28;20068;-68
2022/11/13 07:12:19;;;;;;;20.77;8.90;;;4.10;82.70;;;1.96;100.00;96632.13;4928826;28;20342;-66
2022/11/13 07:14:45;;;;;;;13.80;6.68;;;4.20;82.80;;;2.02;100.00;96631.63;4939346;28;20202;-67
2022/11/13 07:17:10;;;;;;;8.85;6.45;;;4.20;82.00;;;2.06;100.00;96630.47;4909099;28;20744;-67
2022/11/13 07:19:37;;;;;;;11.02;6.97;;;4.30;81.80;;;2.11;100.00;96633.50;4892137;28;20330;-67
2022/11/13 07:22:03;;;;;;;13.73;9.13;;;4.40;81.70;;;2.17;100.00;96639.97;4892814;28;20719;-67
2022/11/13 07:24:29;;;;;;;10.85;6.38;;;4.50;81.70;;;2.20;100.00;96635.34;4907142;28;20782;-67
2022/11/13 07:26:54;;;;;;;8.95;6.60;;;4.50;81.00;;;2.23;100.00;96632.50;4916319;28;20029;-66
2022/11/13 07:29:20;;;;;;;7.45;5.65;;;4.60;80.80;;;2.30;100.00;96636.25;4951490;28;20497;-65
2022/11/13 07:31:46;;;;;;;12.20;6.03;;;4.70;80.70;;;2.36;100.00;96630.56;4983006;28;20354;-66
2022/11/13 07:34:13;;;;;;;7.07;5.43;;;4.80;80.20;;;2.42;100.00;96635.25;4984633;28;20467;-65
2022/11/13 07:36:39;;;;;;;11.38;8.48;;;4.80;80.10;;;2.47;100.00;96627.06;4981428;28;20052;-64
2022/11/13 07:39:05;;;;;;;10.40;6.45;;;4.90;80.00;;;2.55;100.00;96629.06;4944436;28;20358;-65
2022/11/13 07:41:31;;;;;;;10.45;7.57;;;5.00;79.80;;;2.62;100.00;96623.22;4888835;28;20642;-72
2022/11/13 07:43:57;;;;;;;9.75;6.82;;;5.10;79.90;;;2.72;100.00;96636.28;4896249;28;20664;-66
2022/11/13 07:46:23;;;;;;;9.07;6.82;;;5.30;79.60;;;2.81;100.00;96642.47;4880566;28;20491;-68
2022/11/13 07:48:49;;;;;;;8.60;6.15;;;5.40;79.30;;;2.89;100.00;96643.47;4943514;28;20367;-66
2022/11/13 07:51:15;;;;;;;7.80;6.18;;;5.40;79.30;;;2.98;100.00;96653.13;4940236;28;20396;-69
2022/11/13 07:53:41;;;;;;;9.43;6.10;;;5.60;79.30;;;3.07;100.00;96665.34;4907484;28;20341;-66
2022/11/13 07:56:08;;;;;;;9.40;6.45;;;5.60;79.10;;;3.14;100.00;96657.84;4939960;28;20350;-66
2022/11/13 07:58:34;;;;;;;8.10;6.03;;;5.60;78.60;;;3.22;100.00;96647.63;4924583;28;20327;-71
2022/11/13 08:01:04;;;;;;;10.27;6.70;;;5.80;78.40;;;3.30;100.00;96644.38;4925700;28;20476;-68
2022/11/13 08:03:30;;;;;;;9.63;6.43;;;5.80;78.70;;;3.36;100.00;96654.25;4906425;28;20503;-67
2022/11/13 08:06:07;;;;;;;8.75;6.63;;;5.90;77.90;;;3.44;100.00;96664.84;4899324;28;20485;-66
2022/11/13 08:08:33;;;;;;;10.77;7.93;;;6.10;77.80;;;3.52;100.00;96670.19;4892492;28;20485;-68
2022/11/13 08:11:04;;;;;;;12.32;8.38;;;6.20;77.60;;;3.63;100.00;96649.31;4889290;28;20534;-67
2022/11/13 08:13:30;;;;;;;8.65;6.68;;;6.40;77.10;;;3.74;100.00;96639.72;4905225;28;20495;-67
2022/11/13 08:16:01;;;;;;;8.80;6.20;;;6.60;76.60;;;3.88;100.00;96652.38;4891459;28;20440;-67
2022/11/13 08:18:28;;;;;;;10.95;6.30;;;6.70;76.00;;;3.98;100.00;96648.00;4872855;28;20353;-67
2022/11/13 08:20:54;;;;;;;9.55;6.35;;;6.80;75.60;;;4.02;100.00;96649.38;4886018;28;20279;-65
2022/11/13 08:23:20;;;;;;;8.45;6.55;;;6.80;74.50;;;4.11;100.00;96648.56;4899590;28;20480;-65
2022/11/13 08:25:46;;;;;;;8.07;5.75;;;7.00;74.60;;;4.18;100.00;96641.84;4893736;28;20314;-67
2022/11/13 08:28:12;;;;;;;7.40;6.13;;;7.00;74.20;;;4.23;100.00;96637.06;4900298;28;20375;-67
2022/11/13 08:30:38;;;;;;;7.88;6.45;;;7.00;74.10;;;4.27;100.00;96628.00;4912106;28;20358;-67
2022/11/13 08:33:04;;;;;;;9.15;6.35;;;6.90;73.80;;;4.35;100.00;96634.34;4899060;28;20579;-67
2022/11/13 08:35:30;;;;;;;7.95;5.47;;;6.90;74.30;;;4.42;100.00;96640.63;4883925;28;20582;-65
2022/11/13 08:38:07;;;;;;;7.00;5.88;;;7.00;74.50;;;4.50;100.00;96627.72;4888455;28;20315;-66
2022/11/13 08:40:34;;;;;;;9.43;6.18;;;7.20;73.80;;;4.60;100.00;96616.34;4889125;28;20349;-68
2022/11/13 08:43:01;;;;;;;7.68;6.20;;;7.30;73.20;;;4.67;100.00;96603.59;4906600;28;20659;-66
2022/11/13 08:45:28;;;;;;;6.95;5.93;;;7.40;73.70;;;4.77;100.00;96603.59;4922951;28;20562;-68
2022/11/13 08:48:00;;;;;;;7.90;5.93;;;7.60;73.10;;;4.86;100.00;96603.53;4881851;28;20357;-67
2022/11/13 08:50:27;;;;;;;7.32;6.00;;;7.70;72.90;;;4.96;100.00;96606.13;4890717;28;20656;-66
2022/11/13 08:52:57;;;;;;;9.23;6.22;;;7.90;72.40;;;5.07;100.00;96600.75;4890509;28;20345;-67
2022/11/13 08:55:23;;;;;;;8.48;6.80;;;8.00;72.30;;;5.20;100.00;96605.63;4934573;28;20325;-69
2022/11/13 08:57:50;;;;;;;10.65;7.47;;;8.20;72.40;;;5.32;100.00;96609.72;4902533;28;20459;-66
2022/11/13 09:00:16;;;;;;;12.63;8.13;;;8.60;71.30;;;5.43;100.00;96606.94;4910670;28;20365;-67
2022/11/13 09:02:42;;;;;;;9.85;7.55;;;8.80;69.80;;;5.57;100.00;96607.41;4912418;28;20748;-67
2022/11/13 09:05:09;;;;;;;9.82;7.50;;;9.30;68.30;;;5.76;100.00;96610.72;4905478;28;20448;-65
2022/11/13 09:07:35;;;;;;;22.58;16.65;;;9.70;66.90;;;5.93;100.00;96608.31;4891735;28;20369;-65
2022/11/13 09:10:01;;;;;;;36.88;28.60;;;9.60;67.60;;;6.00;100.00;96602.34;4901165;28;20461;-66
2022/11/13 09:12:27;;;;;;;12.63;10.65;;;9.60;67.50;;;6.10;100.00;96610.94;4943278;28;20368;-67
2022/11/13 09:14:53;;;;;;;9.60;8.13;;;10.10;66.60;;;6.37;100.00;96614.47;4906114;28;20346;-65
2022/11/13 09:17:19;;;;;;;10.15;7.82;;;11.90;61.60;;;6.70;100.00;96603.28;4941225;28;20456;-64
2022/11/13 09:19:45;;;;;;;10.30;8.00;;;12.80;57.90;;;7.00;100.00;96602.00;4909915;28;20371;-67
2022/11/13 09:22:11;;;;;;;9.40;7.28;;;12.80;57.80;;;7.31;100.00;96583.22;4900014;28;20464;-69
2022/11/13 09:24:37;;;;;;;9.60;8.00;;;13.40;54.60;;;7.57;100.00;96596.25;4905987;28;20331;-68
2022/11/13 09:27:03;;;;;;;8.23;6.93;;;14.30;53.40;;;7.91;100.00;96588.31;4906505;28;20291;-69
2022/11/13 09:29:29;;;;;;;10.65;7.82;;;14.80;51.80;;;8.26;100.00;96587.25;4902937;28;20359;-75
2022/11/13 09:31:55;;;;;;;8.63;7.45;;;16.20;48.60;;;8.69;100.00;96577.47;4906912;28;20222;-70
2022/11/13 09:34:22;;;;;;;8.77;7.50;;;18.10;44.10;;;9.17;100.00;96566.88;4905502;28;20480;-68
2022/11/13 09:36:48;;;;;;;9.98;8.27;;;18.80;42.30;;;9.60;100.00;96572.63;4888993;28;20326;-68
2022/11/13 09:39:15;;;;;;;8.93;7.78;;;19.30;40.60;;;9.92;100.00;96565.56;4905902;28;20357;-68
2022/11/13 09:41:49;;;;;;;9.57;7.82;;;18.70;40.00;;;10.16;95.98;96568.03;4910401;28;20500;-68
2022/11/13 09:44:38;;;;;;;9.05;7.75;;;17.30;43.00;;;10.28;89.99;96571.94;4911480;28;20459;-67
2022/11/13 09:47:18;;;;;;;10.15;7.78;;;16.60;45.30;;;10.62;91.02;96558.34;4906146;28;20622;-69
2022/11/13 09:49:53;;;;;;;8.48;7.45;;;18.80;41.40;;;11.04;92.98;96557.78;4922021;28;20345;-69
2022/11/13 09:52:37;;;;;;;8.77;7.85;;;20.30;39.10;;;11.58;85.51;96554.88;4906144;28;20373;-68
2022/11/13 09:55:04;;;;;;;10.82;8.45;;;21.30;36.60;;;11.99;91.47;96537.72;4918670;28;20488;-69
2022/11/13 09:58:27;;;;;;;9.60;7.93;;;22.10;34.70;;;12.38;77.38;96530.19;4929916;28;20524;-69
2022/11/13 10:00:52;;;;;;;10.63;8.25;;;23.00;33.00;;;12.73;87.78;96533.75;4935616;28;20393;-68
2022/11/13 10:03:25;;;;;;;9.07;7.32;;;23.70;32.10;;;13.08;78.78;96521.38;4905645;28;20939;-66
2022/11/13 10:05:55;;;;;;;9.45;7.47;;;24.80;30.80;;;13.39;79.27;96525.44;4921156;28;20565;-66
2022/11/13 10:08:51;;;;;;;9.35;7.63;;;25.60;29.50;;;13.97;72.34;96528.50;4918340;28;20349;-67
2022/11/13 10:11:37;;;;;;;11.02;8.98;;;26.80;28.30;;;14.53;73.06;96531.69;4951278;28;20210;-66
2022/11/13 10:14:18;;;;;;;11.98;8.68;;;27.80;26.80;;;15.20;71.35;96516.56;4905913;28;20419;-66
2022/11/13 10:17:30;;;;;;;12.38;8.77;;;28.70;26.00;;;15.91;68.15;96503.28;4891879;28;20141;-72
2022/11/13 10:20:03;;;;;;;9.05;7.50;;;29.40;25.30;;;16.43;72.23;96507.44;4934691;28;20402;-64
2022/11/13 10:22:49;;;;;;;9.32;7.25;;;29.60;24.80;;;16.94;66.38;96503.75;4897729;28;20836;-64
2022/11/13 10:25:21;;;;;;;10.55;8.40;;;29.80;24.70;;;17.24;67.22;96489.78;4920146;28;20318;-64
2022/11/13 10:27:59;;;;;;;16.42;12.32;;;30.10;24.70;;;17.45;63.63;96486.69;4910473;28;20318;-65